Tieton, Washington
Current Conditions -  °F | °C
As of 2:53 PM on Saturday 25 Oct 2014 (Local Time) from KYKM Reporting Station
Light Rain Light Rain  
Wind Chill: 57°   Ceiling: 8000
Heat Index: 57°   Visibility: 9mi
Dew Point: 47°   Wind: 0mph
Humidity: 69%   Direction: NA
Pressure: 29.5"   Gusts: NA
Location:  46.7°N, 120.76°W
Report Text: KYKM 252153Z 00000KT 9SM -RA FEW060 OVC080 14/08 A2950 RMK AO2 RAB03E22B49 SLP991 P0000 T01390083
Loading
Personal Weather Stations






























Interactive Weather Map
Tropical Storm Tracking
New forecast layout! Learn more

10-Day Weather Forecast

Advertisements
Track Severe Weather on mobile